OINN  Noshahr Airport

Add Bookmark

Iran

Status IATA
Operational NSH
Latitude Longitude
36° 39' 47" N 51° 27' 52" E
36.663300 51.464699
Local (DST + 5) UTC (GMT + 4)
Jul 25, 2014 03:07 Jul 25, 2014 10:37
Sunrise-Sunset Local UTC
Begin Civil Twilight 05:34 01:04
Sunrise 06:03 01:33
Sunset 08:18 15:48
End Civil Twilight 08:47 16:17

Current Weather

METAR Observed VFR
OINN 251000Z 04008KT 9999 FEW025 30/21 Q1002 Fri, Jul 25, 2014 @ 10:00 UTC
(37 Minutes ago)
Visual Flight Rules

Decoded METAR

Wind Visibility Clouds Conditions
040° at 8 knots (15 kph) 10 km or more
  • Few at 2,500' AGL
  • No significant weather
Temperatures Readings Precipitation
Current Temp 30°C (86°F)
Dewpoint 21°C (70°F)
Heat Index 33°C (91°F)
Humidity 59%
Altimeter 29.59"Hg
Sea Level Pressure 1002mb
None Recorded

Additional weather within a 92.6km radius of OINN

Map ICAO Location
OINR 75km W (292°)

24 Hour Weather History

Loading
-

24 Hour Weather Graphs

Loading
-

CheckWX.com is intended as a tool to help pilots better visualize weather data. It is not intended as a substitute for an official weather briefing obtained from a Flight Service Station. CheckWX.com does not meet the FAA requirements for an official pre-flight weather briefing. Therefore, it's important that pilots still call and obtain an official FSS pre-flight weather briefing.